Time;durP1;ratioP1;P1;durP2;ratioP2;P2;SDS_P1;SDS_P2;PMS_P1;PMS_P2;Temp;Humidity;BMP_temperature;BMP_pressure;BME280_temperature;BME280_humidity;BME280_pressure;Samples;Min_cycle;Max_cycle;Signal;HPM_P1;HPM_P2
2022/06/20 00:00:44;;;;;;;10.30;10.00;;;23.90;99.90;;;;;;5021476;28;21096;-82
2022/06/20 00:03:23;;;;;;;10.50;10.20;;;23.90;99.90;;;;;;5022053;28;20292;-82
2022/06/20 00:05:52;;;;;;;10.40;10.10;;;23.90;99.90;;;;;;5023652;28;20255;-82
2022/06/20 00:08:25;;;;;;;10.27;9.98;;;23.80;99.90;;;;;;5021961;28;20304;-82
2022/06/20 00:10:55;;;;;;;10.30;10.00;;;23.80;99.90;;;;;;5020794;28;20299;-82
2022/06/20 00:13:32;;;;;;;10.30;10.00;;;23.80;99.90;;;;;;5021886;28;20263;-81
2022/06/20 00:16:05;;;;;;;10.52;10.23;;;23.70;99.90;;;;;;5020452;28;20232;-82
2022/06/20 00:18:33;;;;;;;10.30;10.00;;;23.60;99.90;;;;;;5022975;28;20239;-82
2022/06/20 00:21:01;;;;;;;10.35;10.05;;;23.60;99.90;;;;;;5021742;28;20240;-83
2022/06/20 00:23:32;;;;;;;10.20;9.90;;;23.50;99.90;;;;;;5004174;28;20257;-82
2022/06/20 00:26:02;;;;;;;10.60;10.30;;;23.50;99.90;;;;;;5004245;28;20233;-83
2022/06/20 00:28:31;;;;;;;10.32;10.02;;;23.40;99.90;;;;;;5005372;28;20236;-82
2022/06/20 00:31:03;;;;;;;10.50;10.20;;;23.40;99.90;;;;;;5004561;28;20260;-82
2022/06/20 00:33:31;;;;;;;10.30;10.00;;;23.40;99.90;;;;;;5004122;28;20288;-82
2022/06/20 00:36:00;;;;;;;10.30;10.00;;;23.30;99.90;;;;;;5001215;28;20256;-82
2022/06/20 00:38:28;;;;;;;10.32;10.02;;;23.20;99.90;;;;;;5001005;28;20315;-82
2022/06/20 00:40:59;;;;;;;10.30;10.00;;;23.20;99.90;;;;;;5000835;28;20233;-82
2022/06/20 00:43:34;;;;;;;10.20;9.90;;;23.10;99.90;;;;;;5000643;28;20328;-82
2022/06/20 00:46:12;;;;;;;10.20;9.90;;;23.10;99.90;;;;;;5000491;28;20275;-82
2022/06/20 00:48:48;;;;;;;10.10;9.80;;;23.00;99.90;;;;;;5000058;28;20237;-82
2022/06/20 00:51:23;;;;;;;10.45;10.15;;;23.00;99.90;;;;;;5000071;28;20266;-82
2022/06/20 00:54:00;;;;;;;10.20;9.90;;;22.90;99.90;;;;;;4999783;28;20301;-83
2022/06/20 00:56:40;;;;;;;10.20;9.90;;;22.90;99.90;;;;;;5000063;28;20240;-82
2022/06/20 00:59:15;;;;;;;10.27;9.98;;;22.80;99.90;;;;;;4999599;28;20296;-82
2022/06/20 01:01:47;;;;;;;10.40;10.10;;;22.70;99.90;;;;;;4998897;28;20323;-83
2022/06/20 01:04:21;;;;;;;10.40;10.10;;;22.60;99.90;;;;;;4999351;28;20244;-83
2022/06/20 01:06:55;;;;;;;10.20;9.90;;;22.50;99.90;;;;;;4999209;28;20240;-83
2022/06/20 01:09:32;;;;;;;10.20;9.90;;;22.50;99.90;;;;;;4999724;28;20264;-83
2022/06/20 01:12:03;;;;;;;10.20;9.90;;;22.40;99.90;;;;;;5008370;28;20239;-83
2022/06/20 01:14:35;;;;;;;10.40;10.10;;;22.50;99.90;;;;;;5020185;28;20224;-83
2022/06/20 01:17:11;;;;;;;10.32;10.02;;;22.50;99.90;;;;;;5019026;28;20243;-82
2022/06/20 01:19:49;;;;;;;10.30;10.00;;;22.50;99.90;;;;;;5019160;28;20322;-82
2022/06/20 01:22:44;;;;;;;10.27;9.98;;;22.40;99.90;;;;;;5019173;28;20235;-82
2022/06/20 01:25:59;;;;;;;10.40;10.10;;;22.30;99.90;;;;;;5018528;28;20296;-82
2022/06/20 01:28:35;;;;;;;10.35;10.05;;;22.10;99.90;;;;;;5018974;28;20805;-82
2022/06/20 01:31:05;;;;;;;10.32;10.02;;;21.90;99.90;;;;;;5020084;28;20270;-83
2022/06/20 01:33:34;;;;;;;10.65;10.35;;;21.80;99.90;;;;;;5022584;28;20232;-82
2022/06/20 01:38:50;;;;;;;10.55;10.25;;;21.60;99.90;;;;;;5021589;28;20235;-81
2022/06/20 01:44:09;;;;;;;10.40;10.10;;;21.50;99.90;;;;;;5022686;28;20208;-81
2022/06/20 01:46:37;;;;;;;10.32;10.02;;;21.50;99.90;;;;;;5022200;28;20255;-82
2022/06/20 01:49:10;;;;;;;10.20;9.90;;;21.60;99.90;;;;;;5022903;28;20322;-82
2022/06/20 01:51:47;;;;;;;10.23;9.93;;;21.60;99.90;;;;;;5025435;28;21068;-82
2022/06/20 01:54:18;;;;;;;10.30;10.00;;;21.70;99.90;;;;;;5022423;28;20220;-83
2022/06/20 01:56:50;;;;;;;10.30;10.00;;;21.60;99.90;;;;;;5022503;28;20263;-82
2022/06/20 01:59:31;;;;;;;10.20;9.90;;;21.70;99.90;;;;;;5022432;28;20314;-82
2022/06/20 02:01:59;;;;;;;10.23;9.93;;;21.70;99.90;;;;;;5022864;28;20228;-82
2022/06/20 02:04:33;;;;;;;10.32;10.02;;;21.80;99.90;;;;;;5022220;28;20238;-82
2022/06/20 02:07:08;;;;;;;10.20;9.90;;;21.70;99.90;;;;;;5023102;28;20240;-82
2022/06/20 02:09:36;;;;;;;10.25;9.95;;;21.50;99.90;;;;;;5022955;28;20222;-82
2022/06/20 02:12:06;;;;;;;10.10;9.80;;;21.40;99.90;;;;;;5022227;28;20251;-82
2022/06/20 02:14:38;;;;;;;10.02;9.73;;;21.40;99.90;;;;;;5022618;28;20282;-82
2022/06/20 02:17:11;;;;;;;10.20;9.90;;;21.40;99.90;;;;;;5021988;28;20243;-82
2022/06/20 02:19:45;;;;;;;10.38;10.07;;;21.40;99.90;;;;;;5021352;28;20259;-82
2022/06/20 02:22:13;;;;;;;10.40;10.10;;;21.40;99.90;;;;;;5022405;28;20224;-82
2022/06/20 02:24:46;;;;;;;10.20;9.90;;;21.40;99.90;;;;;;5027209;28;20323;-83
2022/06/20 02:27:24;;;;;;;10.20;9.90;;;21.40;99.90;;;;;;5025392;28;20245;-82
2022/06/20 02:29:54;;;;;;;10.32;10.02;;;21.40;99.90;;;;;;5023321;28;20339;-83
2022/06/20 02:32:26;;;;;;;10.15;9.85;;;21.40;99.90;;;;;;5023368;28;20236;-82
2022/06/20 02:34:53;;;;;;;10.40;10.10;;;21.40;99.90;;;;;;5028298;28;20303;-83
2022/06/20 02:37:25;;;;;;;10.38;10.07;;;21.40;99.90;;;;;;5028337;28;20260;-83
2022/06/20 02:39:58;;;;;;;10.35;10.05;;;21.50;99.90;;;;;;5026342;28;20293;-82
2022/06/20 02:42:31;;;;;;;10.23;9.93;;;21.60;99.90;;;;;;5021684;28;20231;-82
2022/06/20 02:45:03;;;;;;;10.30;10.00;;;21.60;99.90;;;;;;5021579;28;20240;-83
2022/06/20 02:47:31;;;;;;;10.30;10.00;;;21.70;99.90;;;;;;5020028;28;20275;-82
2022/06/20 02:50:02;;;;;;;10.38;10.07;;;21.80;99.90;;;;;;5020520;28;20358;-83
2022/06/20 02:52:40;;;;;;;10.38;10.07;;;21.80;99.90;;;;;;5021003;28;20232;-82
2022/06/20 02:55:09;;;;;;;10.63;10.32;;;21.80;99.90;;;;;;5020289;28;20267;-83
2022/06/20 02:57:42;;;;;;;10.60;10.30;;;21.80;99.90;;;;;;5020747;28;20247;-82
2022/06/20 03:00:18;;;;;;;10.55;10.25;;;21.80;99.90;;;;;;5021100;28;20220;-82
2022/06/20 03:02:51;;;;;;;10.40;10.10;;;21.80;99.90;;;;;;5021109;28;21101;-83
2022/06/20 03:05:20;;;;;;;10.38;10.07;;;21.80;99.90;;;;;;5021977;28;20336;-82
2022/06/20 03:07:49;;;;;;;10.40;10.10;;;21.80;99.90;;;;;;5021208;28;20292;-82
2022/06/20 03:10:26;;;;;;;10.23;9.93;;;21.80;99.90;;;;;;5024323;28;20232;-82
2022/06/20 03:12:56;;;;;;;10.40;10.10;;;21.80;99.90;;;;;;5022611;28;20318;-82
2022/06/20 03:15:34;;;;;;;10.30;10.00;;;21.80;99.90;;;;;;5022075;28;20266;-82
2022/06/20 03:18:02;;;;;;;10.20;9.90;;;21.70;99.90;;;;;;5022711;28;20238;-83
2022/06/20 03:20:31;;;;;;;10.15;9.85;;;21.70;99.90;;;;;;5022710;28;20235;-82
2022/06/20 03:23:12;;;;;;;10.13;9.82;;;21.70;99.90;;;;;;5021741;28;20236;-82
2022/06/20 03:25:41;;;;;;;10.43;10.13;;;21.70;99.90;;;;;;5022293;28;20322;-82
2022/06/20 03:28:14;;;;;;;10.30;10.00;;;21.60;99.90;;;;;;5023668;28;20268;-82
2022/06/20 03:30:46;;;;;;;10.20;9.90;;;21.60;99.90;;;;;;5037138;28;20216;-83
2022/06/20 03:33:16;;;;;;;10.30;10.00;;;21.50;99.90;;;;;;5038196;28;20243;-82
2022/06/20 03:35:48;;;;;;;10.20;9.90;;;21.50;99.90;;;;;;5036558;28;20223;-82
2022/06/20 03:38:17;;;;;;;10.13;9.82;;;21.50;99.90;;;;;;5024735;28;20353;-82
2022/06/20 03:40:47;;;;;;;10.00;9.70;;;21.50;99.90;;;;;;5024718;28;20228;-82
2022/06/20 03:43:22;;;;;;;10.00;9.70;;;21.30;99.90;;;;;;5023702;28;20319;-83
2022/06/20 03:45:59;;;;;;;10.10;9.80;;;21.20;99.90;;;;;;5022789;28;20235;-82
2022/06/20 03:48:34;;;;;;;10.30;10.00;;;21.20;99.90;;;;;;5022096;28;20244;-82
2022/06/20 03:51:12;;;;;;;9.90;9.60;;;21.10;99.90;;;;;;5021812;28;20259;-82
2022/06/20 03:53:48;;;;;;;10.10;9.80;;;21.10;99.90;;;;;;5021443;28;20319;-82
2022/06/20 03:56:22;;;;;;;10.07;9.77;;;21.20;99.90;;;;;;5037170;28;20220;-82
2022/06/20 03:58:58;;;;;;;9.95;9.65;;;21.20;99.90;;;;;;5021386;28;20315;-82
2022/06/20 04:01:33;;;;;;;10.10;9.80;;;21.20;99.90;;;;;;5021459;28;20320;-82
2022/06/20 04:04:10;;;;;;;9.95;9.65;;;21.20;99.90;;;;;;5021710;28;20239;-82
2022/06/20 04:06:43;;;;;;;10.07;9.77;;;21.20;99.90;;;;;;5020431;28;20235;-83
2022/06/20 04:12:16;;;;;;;10.13;9.82;;;21.20;99.90;;;;;;5021699;28;20220;-82
2022/06/20 04:14:52;;;;;;;10.32;10.02;;;21.20;99.90;;;;;;5021180;28;20224;-82
2022/06/20 04:20:33;;;;;;;10.50;10.20;;;21.20;99.90;;;;;;5026171;28;20212;-82
2022/06/20 04:23:06;;;;;;;10.48;10.18;;;21.20;99.90;;;;;;5034516;28;20219;-82
2022/06/20 04:25:38;;;;;;;10.40;10.10;;;21.20;99.90;;;;;;5031043;28;20236;-81
2022/06/20 04:28:16;;;;;;;10.70;10.40;;;21.20;99.90;;;;;;5032852;28;20240;-82
2022/06/20 04:30:49;;;;;;;10.93;10.63;;;21.30;99.90;;;;;;5022645;28;20232;-83
2022/06/20 04:33:24;;;;;;;10.68;10.38;;;21.30;99.90;;;;;;5024098;28;20234;-81
2022/06/20 04:36:08;;;;;;;10.50;10.20;;;21.40;99.90;;;;;;5026948;28;20291;-82
2022/06/20 04:38:45;;;;;;;10.40;10.10;;;21.40;99.90;;;;;;5031051;28;20244;-82
2022/06/20 04:41:20;;;;;;;10.20;9.90;;;21.50;99.90;;;;;;5025726;28;20246;-82
2022/06/20 04:43:58;;;;;;;10.02;9.73;;;21.50;99.90;;;;;;5031647;28;20250;-82
2022/06/20 04:46:36;;;;;;;9.90;9.60;;;21.60;99.90;;;;;;5032925;28;20288;-82
2022/06/20 04:49:19;;;;;;;10.15;9.85;;;21.70;99.90;;;;;;5033317;28;20239;-82
2022/06/20 04:51:52;;;;;;;10.07;9.77;;;21.70;99.90;;;;;;5034206;28;20228;-82
2022/06/20 04:54:22;;;;;;;10.23;9.93;;;21.80;99.90;;;;;;5033681;28;20236;-82
2022/06/20 04:56:58;;;;;;;10.50;10.20;;;21.90;99.90;;;;;;5032624;28;20299;-82
2022/06/20 04:59:30;;;;;;;10.40;10.10;;;21.90;99.90;;;;;;5033309;28;20271;-82
2022/06/20 05:02:00;;;;;;;10.30;10.00;;;21.80;99.90;;;;;;5032988;28;20224;-82
2022/06/20 05:04:38;;;;;;;10.10;9.80;;;21.70;99.90;;;;;;5033360;28;20227;-82
2022/06/20 05:07:14;;;;;;;10.43;10.13;;;21.70;99.90;;;;;;5032381;28;20228;-82
2022/06/20 05:09:51;;;;;;;10.50;10.20;;;21.80;99.90;;;;;;5032601;28;20250;-81
2022/06/20 05:12:28;;;;;;;10.70;10.40;;;21.80;99.90;;;;;;5031183;28;20240;-82
2022/06/20 05:15:06;;;;;;;11.00;10.70;;;21.80;99.90;;;;;;5020398;28;20232;-82
2022/06/20 05:17:39;;;;;;;10.80;10.50;;;21.80;99.90;;;;;;5019453;28;20426;-83
2022/06/20 05:20:27;;;;;;;10.73;10.43;;;21.80;99.90;;;;;;5005395;28;20320;-82
2022/06/20 05:23:02;;;;;;;10.68;10.38;;;21.70;99.90;;;;;;5002851;28;21134;-82
2022/06/20 05:25:33;;;;;;;10.70;10.40;;;21.70;99.90;;;;;;5002088;28;20287;-81
2022/06/20 05:28:05;;;;;;;10.70;10.40;;;21.70;99.90;;;;;;5002110;28;20245;-81
2022/06/20 05:30:36;;;;;;;10.70;10.40;;;21.70;99.90;;;;;;5007871;28;20298;-81
2022/06/20 05:33:16;;;;;;;10.60;10.30;;;21.70;99.90;;;;;;5020735;28;20276;-84
2022/06/20 05:35:50;;;;;;;10.30;10.00;;;21.70;99.90;;;;;;5022634;28;20235;-82
2022/06/20 05:38:26;;;;;;;10.60;10.30;;;21.70;99.90;;;;;;5045594;23;20240;-78
2022/06/20 05:40:58;;;;;;;10.57;10.27;;;21.60;99.90;;;;;;5022725;28;20228;-81
2022/06/20 05:43:28;;;;;;;10.68;10.38;;;21.60;99.90;;;;;;5022676;28;20343;-80
2022/06/20 05:48:51;;;;;;;10.30;10.00;;;21.20;99.90;;;;;;5022197;28;20224;-80
2022/06/20 05:51:29;;;;;;;10.25;9.95;;;21.00;99.90;;;;;;5021602;28;20266;-81
2022/06/20 05:54:01;;;;;;;10.10;9.80;;;20.80;99.90;;;;;;5021466;28;20315;-81
2022/06/20 05:56:37;;;;;;;10.07;9.77;;;20.70;99.90;;;;;;5021194;28;20260;-80
2022/06/20 05:59:06;;;;;;;10.32;10.02;;;20.50;99.90;;;;;;5021915;28;20239;-81
2022/06/20 06:01:44;;;;;;;10.18;9.88;;;20.50;99.90;;;;;;5021318;28;20283;-80
2022/06/20 06:04:23;;;;;;;10.30;10.00;;;20.50;99.90;;;;;;5021043;28;20266;-80
2022/06/20 06:07:10;;;;;;;10.10;9.80;;;20.50;99.90;;;;;;5019244;28;20715;-82
2022/06/20 06:09:48;;;;;;;10.05;9.75;;;20.50;99.90;;;;;;5021689;28;20282;-82
2022/06/20 06:12:26;;;;;;;10.00;9.70;;;20.60;99.90;;;;;;5021476;28;20326;-81
2022/06/20 06:15:05;;;;;;;10.00;9.70;;;20.60;99.90;;;;;;5032640;28;20224;-82
2022/06/20 06:17:42;;;;;;;9.90;9.60;;;20.60;99.90;;;;;;5021515;28;20295;-80
2022/06/20 06:20:21;;;;;;;10.00;9.70;;;20.60;99.90;;;;;;5021752;28;20247;-80
2022/06/20 06:23:02;;;;;;;10.23;9.93;;;20.60;99.90;;;;;;5023951;28;20236;-80
2022/06/20 06:25:33;;;;;;;10.02;9.73;;;20.70;99.90;;;;;;5025507;28;20228;-81
2022/06/20 06:28:09;;;;;;;9.95;9.65;;;20.80;99.90;;;;;;5024078;28;20236;-83
2022/06/20 06:30:47;;;;;;;10.00;9.70;;;20.90;99.90;;;;;;5026890;28;20274;-81
2022/06/20 06:33:25;;;;;;;10.07;9.77;;;21.00;99.90;;;;;;5025416;28;20267;-84
2022/06/20 06:36:03;;;;;;;10.10;9.80;;;21.00;99.90;;;;;;5034057;28;20224;-83
2022/06/20 06:38:42;;;;;;;10.20;9.90;;;20.90;99.90;;;;;;5038555;28;20232;-82
2022/06/20 06:41:29;;;;;;;9.90;9.60;;;20.80;99.90;;;;;;5039411;28;20232;-87
2022/06/20 06:44:21;;;;;;;10.00;9.70;;;20.60;99.90;;;;;;5029457;28;20312;-88
2022/06/20 06:46:54;;;;;;;9.98;9.68;;;20.40;99.90;;;;;;5029673;28;20224;-86
2022/06/20 06:49:32;;;;;;;9.90;9.60;;;20.30;99.90;;;;;;5031023;28;20244;-84
2022/06/20 06:52:10;;;;;;;10.30;10.00;;;20.20;99.90;;;;;;5030348;28;20235;-85
2022/06/20 06:54:57;;;;;;;10.27;9.98;;;20.20;99.90;;;;;;5029431;28;20239;-85
2022/06/20 06:57:35;;;;;;;10.30;10.00;;;20.10;99.90;;;;;;5022461;28;20236;-87
2022/06/20 07:00:25;;;;;;;10.07;9.77;;;20.10;99.90;;;;;;5026342;28;20267;-85
2022/06/20 07:03:01;;;;;;;10.13;9.82;;;20.20;99.90;;;;;;5026853;28;20213;-85
2022/06/20 07:05:39;;;;;;;10.00;9.70;;;20.20;99.90;;;;;;5026685;28;20212;-85
2022/06/20 07:08:19;;;;;;;9.90;9.60;;;20.20;99.90;;;;;;5026612;28;20235;-83
2022/06/20 07:10:56;;;;;;;9.93;9.63;;;20.20;99.90;;;;;;5026274;28;20232;-83
2022/06/20 07:13:34;;;;;;;9.77;9.48;;;20.30;99.90;;;;;;5026809;28;20247;-83
2022/06/20 07:16:05;;;;;;;9.70;9.40;;;20.40;99.90;;;;;;5028803;28;20267;-84
2022/06/20 07:18:45;;;;;;;10.00;9.70;;;20.50;99.90;;;;;;5032773;28;20240;-85
2022/06/20 07:21:21;;;;;;;9.68;9.38;;;20.50;99.90;;;;;;5030444;28;20243;-85
2022/06/20 07:23:59;;;;;;;9.88;9.57;;;20.40;99.90;;;;;;5029706;28;20252;-83
2022/06/20 07:26:39;;;;;;;9.80;9.50;;;20.30;99.90;;;;;;5026110;28;20244;-82
2022/06/20 07:29:15;;;;;;;9.70;9.40;;;20.30;99.90;;;;;;5023105;28;20239;-80
2022/06/20 07:31:47;;;;;;;9.82;9.52;;;20.40;99.90;;;;;;5023411;28;20227;-81
2022/06/20 07:34:23;;;;;;;9.70;9.40;;;20.50;99.90;;;;;;5024314;28;20228;-80
2022/06/20 07:37:01;;;;;;;9.63;9.32;;;20.60;99.90;;;;;;5024643;28;20266;-80
2022/06/20 07:39:43;;;;;;;9.90;9.60;;;20.70;99.90;;;;;;5025019;28;20246;-79
2022/06/20 07:42:27;;;;;;;9.68;9.38;;;20.80;99.90;;;;;;5024157;28;20227;-83
2022/06/20 07:45:05;;;;;;;9.70;9.40;;;21.00;99.90;;;;;;5023665;28;20296;-82
2022/06/20 07:47:43;;;;;;;9.90;9.60;;;21.10;99.90;;;;;;5023952;28;20239;-83
2022/06/20 07:50:21;;;;;;;9.80;9.50;;;21.00;99.90;;;;;;5024785;28;20235;-82
2022/06/20 07:52:59;;;;;;;10.05;9.75;;;21.00;99.90;;;;;;5023929;28;20239;-81
2022/06/20 07:55:57;;;;;;;10.07;9.77;;;21.00;99.90;;;;;;5023010;28;20236;-84
2022/06/20 07:58:32;;;;;;;10.10;9.80;;;21.10;99.90;;;;;;5018666;28;20268;-84
2022/06/20 08:06:54;;;;;;;10.40;10.10;;;21.10;99.90;;;;;;5011033;28;20232;-85
2022/06/20 08:09:42;;;;;;;10.20;9.90;;;21.10;99.90;;;;;;5024197;28;20303;-87
2022/06/20 08:12:18;;;;;;;10.10;9.80;;;21.20;99.90;;;;;;5024201;28;20247;-83
2022/06/20 08:14:58;;;;;;;9.90;9.60;;;21.10;99.90;;;;;;5023571;28;20260;-83
2022/06/20 08:17:29;;;;;;;9.90;9.60;;;21.00;99.90;;;;;;5023436;28;20243;-83
2022/06/20 08:20:06;;;;;;;9.80;9.50;;;21.00;99.90;;;;;;5032411;28;20263;-82
2022/06/20 08:25:40;;;;;;;9.90;9.60;;;20.90;99.90;;;;;;5054871;23;20220;-81
2022/06/20 08:31:09;;;;;;;9.80;9.50;;;21.00;99.90;;;;;;5041476;28;20272;-81
2022/06/20 08:33:44;;;;;;;10.00;9.70;;;21.20;99.90;;;;;;5040817;28;20236;-80
2022/06/20 08:36:23;;;;;;;9.85;9.55;;;21.30;99.90;;;;;;5040657;28;20254;-79
2022/06/20 08:39:00;;;;;;;9.75;9.45;;;21.40;99.90;;;;;;5040837;28;20259;-82
2022/06/20 08:41:58;;;;;;;9.93;9.63;;;21.60;99.90;;;;;;5041074;28;20238;-82
2022/06/20 08:45:01;;;;;;;10.00;9.70;;;21.90;99.90;;;;;;5028473;28;20221;-81
2022/06/20 08:48:34;;;;;;;9.75;9.45;;;22.20;99.90;;;;;;5020158;28;20208;-82
2022/06/20 08:52:11;;;;;;;9.90;9.60;;;22.60;99.90;;;;;;4961694;28;20226;-82
2022/06/20 08:55:25;;;;;;;10.10;9.80;;;22.80;99.90;;;;;;4960906;28;20231;-79
2022/06/20 08:58:03;;;;;;;10.30;10.00;;;23.00;99.90;;;;;;5020039;28;20258;-81
2022/06/20 09:00:41;;;;;;;10.30;10.00;;;23.40;99.90;;;;;;5020321;28;20310;-80
2022/06/20 09:03:48;;;;;;;10.27;9.98;;;23.80;99.90;;;;;;5019975;28;20212;-82
2022/06/20 09:06:50;;;;;;;10.40;10.10;;;23.90;99.90;;;;;;5037122;28;20284;-81
2022/06/20 09:09:47;;;;;;;10.30;10.00;;;23.90;99.90;;;;;;5038920;28;20227;-81
2022/06/20 09:13:00;;;;;;;10.27;9.98;;;23.60;99.90;;;;;;5039363;28;20243;-82
2022/06/20 09:15:47;;;;;;;10.20;9.90;;;23.60;99.90;;;;;;5039268;28;20240;-82
2022/06/20 09:18:35;;;;;;;10.25;9.95;;;24.00;99.90;;;;;;5035379;28;20221;-81
2022/06/20 09:24:19;;;;;;;10.70;10.40;;;24.70;99.90;;;;;;5018260;28;20237;-82
2022/06/20 09:26:55;;;;;;;10.38;10.07;;;24.80;99.90;;;;;;5025749;28;20264;-82
2022/06/20 09:30:02;;;;;;;10.80;10.50;;;25.20;99.90;;;;;;5032887;28;20265;-83
2022/06/20 09:33:43;;;;;;;10.80;10.50;;;25.20;99.90;;;;;;5032482;28;20232;-84
2022/06/20 09:36:53;;;;;;;10.80;10.50;;;25.30;99.90;;;;;;5033872;28;20208;-82
2022/06/20 09:39:41;;;;;;;10.95;10.65;;;25.50;99.90;;;;;;5033690;28;20255;-82
2022/06/20 09:42:27;;;;;;;10.80;10.50;;;25.60;99.90;;;;;;5034512;28;20322;-83
2022/06/20 09:48:02;;;;;;;10.90;10.60;;;26.10;99.90;;;;;;5032618;28;20226;-84
2022/06/20 09:50:59;;;;;;;11.02;10.73;;;26.30;99.90;;;;;;5033918;28;20263;-83
2022/06/20 09:53:55;;;;;;;11.18;10.88;;;26.60;99.90;;;;;;5034803;28;20243;-86
2022/06/20 09:56:41;;;;;;;11.07;10.77;;;26.60;99.90;;;;;;5034708;28;20228;-83
2022/06/20 09:59:19;;;;;;;10.98;10.68;;;26.80;99.90;;;;;;5033771;28;20235;-82
2022/06/20 10:01:56;;;;;;;10.95;10.65;;;26.90;99.90;;;;;;5032747;28;20236;-83
2022/06/20 10:04:34;;;;;;;10.82;10.52;;;27.20;99.90;;;;;;5033265;28;20232;-82
2022/06/20 10:07:14;;;;;;;10.93;10.63;;;27.40;99.90;;;;;;5035935;28;20230;-83
2022/06/20 10:09:50;;;;;;;11.27;10.98;;;27.60;99.90;;;;;;5033098;28;20220;-84
2022/06/20 10:12:40;;;;;;;11.20;10.90;;;27.50;99.90;;;;;;5029953;28;20231;-83
2022/06/20 10:15:16;;;;;;;11.18;10.88;;;27.70;99.90;;;;;;5033022;28;20292;-84
2022/06/20 10:17:55;;;;;;;10.40;10.10;;;28.00;99.90;;;;;;5032660;28;20232;-83
2022/06/20 10:20:35;;;;;;;10.70;10.40;;;28.20;99.90;;;;;;5034713;28;20223;-84
2022/06/20 10:23:30;;;;;;;10.85;10.55;;;28.50;99.90;;;;;;5034844;28;20238;-84
2022/06/20 10:26:25;;;;;;;10.75;10.45;;;28.80;99.90;;;;;;5031772;28;20247;-83
2022/06/20 10:32:01;;;;;;;11.25;10.95;;;28.70;99.90;;;;;;5025667;28;20232;-83
2022/06/20 10:34:46;;;;;;;11.15;10.85;;;28.80;99.90;;;;;;5028592;28;20295;-85
2022/06/20 10:37:27;;;;;;;11.25;10.95;;;28.50;99.90;;;;;;5024166;28;20275;-85
2022/06/20 10:40:03;;;;;;;11.25;10.95;;;28.40;99.90;;;;;;5024304;28;20227;-85
2022/06/20 10:42:34;;;;;;;11.63;11.23;;;28.20;99.90;;;;;;5023994;28;20215;-85
2022/06/20 10:49:17;;;;;;;11.30;11.00;;;28.80;99.90;;;;;;5022659;28;20291;-85
2022/06/20 10:51:56;;;;;;;11.20;10.90;;;28.30;99.90;;;;;;5022228;28;20224;-88
2022/06/20 10:54:44;;;;;;;11.10;10.80;;;28.50;99.90;;;;;;5021936;28;20236;-86
2022/06/20 10:57:30;;;;;;;11.10;10.80;;;28.70;99.90;;;;;;5022630;28;20236;-86
2022/06/20 11:00:09;;;;;;;11.25;10.95;;;28.70;99.90;;;;;;5022179;28;20267;-86
2022/06/20 11:03:21;;;;;;;11.52;11.13;;;28.40;99.90;;;;;;5024721;28;20231;-86
2022/06/20 11:05:59;;;;;;;11.27;10.98;;;28.10;99.90;;;;;;5022143;28;20229;-86
2022/06/20 11:08:48;;;;;;;11.48;11.07;;;28.00;99.90;;;;;;5028217;28;20331;-85
2022/06/20 11:11:33;;;;;;;11.63;11.23;;;28.30;99.90;;;;;;5039063;28;20220;-85
2022/06/20 11:14:15;;;;;;;11.50;11.10;;;28.70;99.90;;;;;;5024871;28;20252;-86
2022/06/20 11:16:59;;;;;;;11.38;11.05;;;28.80;99.90;;;;;;5032130;28;20228;-84
2022/06/20 11:19:45;;;;;;;11.52;11.13;;;28.90;99.90;;;;;;5040403;28;20220;-84
2022/06/20 11:22:32;;;;;;;11.27;10.98;;;28.60;99.90;;;;;;5040928;28;20244;-86
2022/06/20 11:28:50;;;;;;;11.40;11.00;;;28.40;99.90;;;;;;5025618;28;20233;-85
2022/06/20 11:34:54;;;;;;;11.07;10.77;;;28.40;99.90;;;;;;5025453;28;20239;-85
2022/06/20 11:37:49;;;;;;;11.20;10.90;;;27.90;99.90;;;;;;5016194;28;20244;-86
2022/06/20 11:40:45;;;;;;;11.25;10.95;;;27.70;99.90;;;;;;5024059;28;20228;-88
2022/06/20 11:43:54;;;;;;;11.07;10.77;;;27.40;99.90;;;;;;5062565;23;20314;-82
2022/06/20 11:46:43;;;;;;;11.38;10.98;;;27.10;99.90;;;;;;5054142;28;20224;-84
2022/06/20 11:49:26;;;;;;;10.95;10.65;;;27.00;99.90;;;;;;5042865;28;20242;-85
2022/06/20 11:52:09;;;;;;;11.20;10.90;;;27.00;99.90;;;;;;5039371;28;20326;-86
2022/06/20 11:54:46;;;;;;;11.20;10.90;;;27.10;99.90;;;;;;5021090;28;20243;-85
2022/06/20 11:57:25;;;;;;;10.95;10.65;;;27.60;99.90;;;;;;5021102;28;20318;-86
2022/06/20 12:00:12;;;;;;;10.98;10.68;;;27.80;99.90;;;;;;5026729;28;20247;-85
2022/06/20 12:03:00;;;;;;;11.18;10.88;;;27.80;99.90;;;;;;5037150;28;20219;-87
2022/06/20 12:05:45;;;;;;;10.93;10.63;;;27.40;99.90;;;;;;5026486;28;20220;-85
2022/06/20 12:08:43;;;;;;;10.80;10.50;;;27.10;99.90;;;;;;5013536;28;20266;-86
2022/06/20 12:11:38;;;;;;;10.70;10.40;;;26.80;99.90;;;;;;5028285;28;20235;-86
2022/06/20 12:17:43;;;;;;;10.98;10.68;;;26.30;99.90;;;;;;5015746;28;20256;-86
2022/06/20 12:23:43;;;;;;;11.40;11.10;;;25.80;99.90;;;;;;5012027;28;20315;-86
2022/06/20 12:26:17;;;;;;;11.25;10.95;;;25.80;99.90;;;;;;5014897;28;20258;-84
2022/06/20 12:28:48;;;;;;;11.07;10.77;;;25.90;99.90;;;;;;5024740;28;20312;-85
2022/06/20 12:31:24;;;;;;;11.38;11.07;;;25.60;99.90;;;;;;5032591;28;20220;-82
2022/06/20 12:33:56;;;;;;;11.25;10.95;;;25.20;99.90;;;;;;5030936;28;20326;-83
2022/06/20 12:36:31;;;;;;;11.70;11.30;;;24.60;99.90;;;;;;5025054;28;20224;-83
2022/06/20 12:39:07;;;;;;;11.55;11.15;;;24.20;99.90;;;;;;5024360;28;20236;-83
2022/06/20 12:41:42;;;;;;;11.40;11.10;;;23.90;99.90;;;;;;5026302;28;20227;-82
2022/06/20 12:44:44;;;;;;;11.30;11.00;;;23.70;99.90;;;;;;5023182;28;20239;-83
2022/06/20 12:47:47;;;;;;;11.40;11.02;;;23.60;99.90;;;;;;5021642;28;20250;-83
2022/06/20 12:50:24;;;;;;;11.45;11.05;;;23.70;99.90;;;;;;5008787;28;20270;-83
2022/06/20 12:53:18;;;;;;;11.30;11.00;;;23.80;99.90;;;;;;5022087;28;20247;-83
2022/06/20 12:56:04;;;;;;;11.30;11.00;;;23.80;99.90;;;;;;5020693;28;20264;-83
2022/06/20 12:59:04;;;;;;;11.48;11.10;;;23.80;99.90;;;;;;5022219;28;20228;-82
2022/06/20 13:01:42;;;;;;;11.40;11.00;;;23.70;99.90;;;;;;5023206;28;20296;-83
2022/06/20 13:04:56;;;;;;;11.10;10.80;;;23.50;99.90;;;;;;5021851;28;20281;-84
2022/06/20 13:07:48;;;;;;;11.90;11.50;;;23.60;99.90;;;;;;5021092;28;20413;-88
2022/06/20 13:10:32;;;;;;;11.57;11.18;;;24.20;99.90;;;;;;5024191;28;20235;-84
2022/06/20 13:13:46;;;;;;;11.25;10.95;;;25.20;99.90;;;;;;5023202;28;20317;-84
2022/06/20 13:16:23;;;;;;;11.55;11.15;;;25.50;99.90;;;;;;5023878;28;20780;-83
2022/06/20 13:19:23;;;;;;;11.30;11.00;;;25.80;99.90;;;;;;5024824;28;20251;-83
2022/06/20 13:21:56;;;;;;;11.70;11.30;;;25.80;99.90;;;;;;5019501;28;20236;-83
2022/06/20 13:24:42;;;;;;;11.45;11.05;;;25.40;99.90;;;;;;5022101;28;20315;-84
2022/06/20 13:27:26;;;;;;;11.05;10.75;;;25.10;99.90;;;;;;5023813;28;20228;-84
2022/06/20 13:30:03;;;;;;;11.10;10.80;;;25.10;99.90;;;;;;5025916;28;20323;-83
2022/06/20 13:32:34;;;;;;;11.00;10.70;;;25.00;99.90;;;;;;5025619;28;20236;-84
2022/06/20 13:35:17;;;;;;;11.20;10.90;;;24.90;99.90;;;;;;5025299;28;20278;-85
2022/06/20 13:37:50;;;;;;;11.27;10.98;;;24.70;99.90;;;;;;5025497;28;20263;-83
2022/06/20 13:40:29;;;;;;;11.10;10.80;;;24.60;99.90;;;;;;5025133;28;20271;-84
2022/06/20 13:43:10;;;;;;;11.18;10.88;;;24.30;99.90;;;;;;5024655;28;20232;-83
2022/06/20 13:45:47;;;;;;;11.05;10.75;;;24.10;99.90;;;;;;5024662;28;20238;-84
2022/06/20 13:48:24;;;;;;;10.98;10.68;;;23.80;99.90;;;;;;5024631;28;20232;-81
2022/06/20 13:50:59;;;;;;;11.00;10.70;;;23.50;99.90;;;;;;5021318;28;20263;-82
2022/06/20 13:53:34;;;;;;;11.10;10.80;;;23.30;99.90;;;;;;5017836;28;20331;-83
2022/06/20 13:56:25;;;;;;;11.05;10.75;;;23.30;99.90;;;;;;5024383;28;20235;-82
2022/06/20 13:59:06;;;;;;;10.90;10.60;;;23.30;99.90;;;;;;5025747;28;20234;-82
2022/06/20 14:01:40;;;;;;;11.10;10.80;;;23.20;99.90;;;;;;5024454;28;20294;-82
2022/06/20 14:04:15;;;;;;;11.98;11.57;;;23.10;99.90;;;;;;5025661;28;20266;-82
2022/06/20 14:06:54;;;;;;;10.80;10.50;;;23.20;99.90;;;;;;5027397;28;20235;-81
2022/06/20 14:09:26;;;;;;;10.90;10.60;;;23.20;99.90;;;;;;5032669;28;20290;-82
2022/06/20 14:11:58;;;;;;;11.00;10.70;;;23.20;99.90;;;;;;5029821;28;20260;-84
2022/06/20 14:30:57;;;;;;;;;;;;;;;;;;;;;
2022/06/20 14:34:27;;;;;;;;;;;;;;;;;;;;;
2022/06/20 15:19:05;;;;;;;10.75;10.45;;;22.20;99.90;;;;;;4876954;29;20269;-86
2022/06/20 15:35:58;;;;;;;10.90;10.60;;;21.80;99.90;;;;;;4753977;30;20292;-85
2022/06/20 16:00:20;;;;;;;10.70;10.40;;;21.40;99.90;;;;;;4773317;29;20224;-84
2022/06/20 16:07:18;;;;;;;10.15;9.85;;;21.20;99.90;;;;;;4847854;29;20835;-84